createdAt,value
2018-06-20T12:44:00.916Z,44.36
2018-06-20T12:44:57.034Z,44.65
2018-06-20T12:46:09.142Z,43.88
2018-06-20T15:53:20.244Z,47.81
2018-06-20T15:54:20.070Z,47.91
2018-06-20T16:07:00.634Z,37.07
2018-06-20T16:08:00.578Z,38.09
2018-06-20T16:09:00.632Z,39.35
2018-06-20T16:10:01.331Z,39.45
2018-06-20T16:11:00.698Z,38.25
2018-06-20T16:12:00.870Z,38.54
2018-06-20T16:13:00.618Z,37.54
2018-06-20T16:14:00.716Z,37.56
2018-06-20T16:15:00.625Z,38.45
2018-06-20T16:16:00.647Z,37.66
2018-06-20T16:17:00.549Z,37.96
2018-06-20T16:18:00.486Z,36.98
2018-06-20T16:19:00.660Z,36.98
2018-06-20T16:20:00.582Z,38.27
2018-06-20T16:21:00.453Z,38.25
2018-06-20T16:22:00.426Z,37.58
2018-06-20T16:23:00.420Z,36.99
2018-06-20T16:24:00.590Z,38.27
2018-06-20T16:25:00.450Z,37.96
2018-06-20T16:26:00.398Z,37.27
2018-06-20T16:27:00.383Z,36.45
2018-06-20T16:28:00.362Z,36.33
2018-06-20T16:29:00.423Z,36.35
2018-06-20T16:30:14.601Z,36.66
2018-06-20T16:31:42.217Z,36.68
2018-06-20T16:32:00.756Z,36.88
2018-06-20T16:33:00.911Z,38.25
2018-06-20T16:34:00.415Z,36.58
2018-06-20T16:35:00.445Z,36.39
2018-06-20T16:36:00.468Z,36.88
2018-06-20T16:37:00.310Z,36.39
2018-06-20T16:38:00.623Z,36.58
2018-06-20T16:39:00.303Z,37.27
2018-06-20T16:40:00.246Z,37.09
2018-06-20T16:41:00.229Z,37.09
2018-06-20T16:42:00.215Z,37.01
2018-06-20T16:43:00.205Z,38.42
2018-06-20T16:44:00.256Z,38.36
2018-06-20T16:45:00.188Z,39.26
2018-06-20T16:46:00.306Z,39.37
2018-06-20T16:47:00.164Z,39.09
2018-06-20T16:48:00.156Z,39.56
2018-06-20T16:49:00.252Z,39.37
2018-06-20T16:50:00.144Z,40.35
2018-06-20T16:51:00.125Z,39.56
2018-06-20T16:52:01.236Z,39.66
2018-06-20T16:53:00.100Z,38.89
2018-06-20T16:54:00.305Z,40.39
2018-06-20T16:55:00.168Z,41.08
2018-06-20T16:56:00.070Z,41.67
2018-06-20T16:57:00.059Z,39.92
2018-06-20T16:58:00.062Z,41.00
2018-06-20T16:59:00.111Z,41.78
2018-06-20T17:00:00.042Z,40.01
2018-06-20T17:01:00.025Z,41.69
2018-06-20T17:02:00.020Z,41.69
2018-06-20T17:03:08.800Z,41.67
2018-06-20T17:04:00.065Z,41.27
2018-06-20T17:04:59.975Z,40.69
2018-06-20T17:05:59.966Z,41.59
2018-06-20T17:06:59.955Z,40.11
2018-06-20T17:08:04.293Z,41.30
2018-06-20T17:08:59.996Z,41.39
2018-06-20T17:09:59.920Z,40.01
2018-06-20T17:10:59.922Z,40.31
2018-06-20T17:11:59.902Z,41.09
2018-06-20T17:12:59.889Z,41.17
2018-06-20T17:13:59.944Z,40.19
2018-06-20T17:15:00.469Z,41.49
2018-06-20T17:15:59.984Z,39.42
2018-06-20T17:16:59.981Z,40.90
2018-06-20T17:17:59.883Z,41.41
2018-06-20T17:18:59.909Z,41.09
2018-06-20T17:19:59.815Z,41.71
2018-06-20T17:20:59.799Z,42.10
2018-06-20T17:22:00.453Z,41.59
2018-06-20T17:22:59.778Z,43.48
2018-06-20T17:23:59.842Z,41.30
2018-06-20T17:24:59.851Z,41.41
2018-06-20T17:25:59.748Z,42.20
2018-06-20T17:26:59.749Z,41.91
2018-06-20T17:27:59.741Z,44.37
2018-06-20T17:28:59.795Z,44.94
2018-06-20T17:29:59.704Z,44.94
2018-06-20T17:30:59.696Z,0.00
2018-06-20T17:31:59.697Z,38.35
2018-06-20T17:32:59.687Z,38.72
2018-06-20T17:33:59.986Z,39.94
2018-06-20T17:34:59.652Z,39.97
2018-06-20T17:35:59.651Z,39.79
2018-06-20T17:37:00.033Z,40.80
2018-06-20T17:37:59.697Z,40.82
2018-06-20T17:38:59.713Z,41.61
2018-06-20T17:39:59.662Z,42.30
2018-06-20T17:40:59.601Z,42.20
2018-06-20T17:41:59.597Z,42.20
2018-06-20T17:42:59.571Z,41.31
2018-06-20T17:43:59.651Z,42.40
2018-06-20T17:44:59.665Z,41.91
2018-06-20T17:45:59.594Z,42.60
2018-06-20T17:46:59.540Z,41.41
2018-06-20T17:47:59.818Z,41.41
2018-06-20T17:48:59.751Z,42.40
2018-06-20T17:50:00.454Z,42.10
2018-06-20T17:50:59.484Z,42.00
2018-06-20T17:51:59.466Z,41.73
2018-06-20T17:52:59.593Z,41.53
2018-06-20T17:54:00.472Z,41.14
2018-06-20T17:54:59.565Z,41.43
2018-06-20T17:55:59.577Z,41.51
2018-06-20T17:56:59.478Z,41.41
2018-06-20T17:57:59.929Z,41.30
2018-06-20T17:58:59.398Z,40.21
2018-06-20T17:59:59.448Z,41.09
2018-06-20T18:00:59.382Z,40.48
2018-06-20T18:02:00.330Z,40.29
2018-06-20T18:02:59.375Z,40.37
2018-06-20T18:03:59.352Z,39.68
2018-06-20T18:04:59.410Z,40.08
2018-06-20T18:05:59.485Z,39.97
2018-06-20T18:06:59.319Z,39.78
2018-06-20T18:07:59.488Z,40.27
2018-06-20T18:08:59.290Z,39.78
2018-06-20T18:11:27.666Z,39.09
2018-06-20T18:12:27.548Z,39.39
2018-06-20T18:13:27.596Z,39.58
2018-06-20T18:14:27.597Z,39.09
2018-06-20T18:15:28.298Z,39.58
2018-06-20T18:16:27.569Z,39.39
2018-06-20T18:17:27.333Z,39.17
2018-06-20T18:18:28.628Z,39.26
2018-06-20T18:19:27.418Z,39.64
2018-06-20T18:20:27.484Z,38.85
2018-06-20T18:28:00.024Z,41.08
2018-06-20T18:28:59.790Z,41.69
2018-06-20T18:29:59.608Z,43.19
2018-06-20T18:31:01.003Z,43.31
2018-06-20T18:34:48.182Z,43.03
2018-06-20T18:35:49.228Z,43.65
2018-06-20T18:36:48.771Z,44.73
2018-06-20T18:37:47.873Z,44.24
2018-06-20T18:38:47.875Z,44.16
2018-06-20T18:39:48.295Z,44.75
2018-06-20T18:40:55.742Z,43.79
2018-06-20T18:41:48.309Z,44.58
2018-06-20T18:42:48.078Z,44.10
2018-06-20T18:43:48.629Z,45.51
2018-06-20T18:44:48.190Z,45.09
2018-06-20T18:45:48.000Z,45.51
2018-06-20T18:46:47.839Z,45.71
2018-06-20T18:47:47.956Z,46.11
2018-06-20T18:49:51.783Z,45.73
2018-06-20T18:56:47.124Z,47.26
2018-06-20T18:57:47.211Z,47.36
2018-06-20T19:01:45.139Z,47.86
2018-06-20T19:02:44.791Z,47.58
2018-06-20T19:03:44.427Z,47.38
2018-06-20T19:04:44.441Z,48.47
2018-06-20T19:05:44.402Z,48.47
2018-06-20T19:06:44.480Z,48.38
2018-06-20T19:07:44.379Z,49.09
2018-06-20T19:08:44.375Z,49.09
2018-06-20T19:09:44.368Z,49.09
2018-06-20T19:10:44.408Z,49.19
2018-06-20T19:11:44.345Z,47.73
2018-06-20T19:12:44.326Z,49.21
2018-06-20T19:13:44.317Z,50.11
2018-06-20T19:14:44.330Z,49.71
2018-06-20T19:15:44.412Z,49.81
2018-06-20T19:16:44.281Z,49.81
2018-06-20T19:17:44.303Z,49.41
2018-06-20T19:18:44.295Z,50.01
2018-06-20T19:19:44.333Z,50.63
2018-06-20T19:20:44.306Z,50.43
2018-06-20T19:21:44.264Z,50.53
2018-06-20T19:22:44.218Z,50.85
2018-06-20T19:23:44.269Z,50.73
2018-06-20T19:24:44.197Z,50.75
2018-06-20T19:25:44.302Z,50.65
2018-06-20T19:26:44.191Z,50.75
2018-06-20T19:27:44.266Z,50.56
2018-06-20T19:28:44.152Z,50.65
2018-06-20T19:29:44.163Z,50.65
2018-06-20T19:30:44.237Z,50.88
2018-06-20T19:31:44.159Z,51.07
2018-06-20T19:32:44.122Z,51.17
2018-06-20T19:33:44.260Z,50.78
2018-06-20T19:34:44.144Z,50.98
2018-06-20T19:35:44.217Z,50.98
2018-06-20T19:36:44.066Z,51.67
2018-06-20T19:37:44.130Z,51.07
2018-06-20T19:38:44.130Z,51.77
2018-06-20T19:39:44.041Z,51.17
2018-06-20T19:40:44.131Z,51.77
2018-06-20T19:41:44.051Z,52.17
2018-06-20T19:42:44.011Z,52.86
2018-06-20T19:43:44.036Z,52.67
2018-06-20T19:44:44.062Z,53.39
2018-06-20T19:45:44.084Z,53.49
2018-06-20T19:46:43.961Z,53.39
2018-06-20T19:47:43.970Z,53.39
2018-06-20T19:48:43.931Z,53.98
2018-06-20T19:49:43.944Z,53.78
2018-06-20T19:50:44.077Z,53.88
2018-06-20T19:51:43.946Z,55.18
2018-06-20T19:52:43.906Z,54.90
2018-06-20T19:53:43.908Z,53.61
2018-06-20T19:54:44.013Z,55.00
2018-06-20T19:55:43.931Z,55.40
2018-06-20T19:56:43.876Z,56.49
2018-06-20T19:57:43.851Z,57.19
2018-06-20T19:58:43.872Z,56.52
2018-06-20T19:59:43.873Z,55.82
2018-06-20T20:00:43.909Z,56.92
2018-06-20T20:01:43.818Z,57.62
2018-06-20T20:02:43.841Z,57.05
2018-06-20T20:03:43.795Z,57.45
2018-06-20T20:04:43.889Z,57.07
2018-06-20T20:05:43.870Z,57.77
2018-06-20T20:06:43.797Z,58.67
2018-06-20T20:07:43.827Z,58.40
2018-06-20T20:08:43.723Z,59.00
2018-06-20T20:09:43.729Z,58.70
2018-06-20T20:10:43.785Z,59.12
2018-06-20T20:11:43.748Z,58.92
2018-06-20T20:12:43.731Z,58.23
2018-06-20T20:13:43.684Z,58.70
2018-06-20T20:14:43.717Z,58.62
2018-06-20T20:15:43.779Z,58.83
2018-06-20T20:16:43.670Z,58.42
2018-06-20T20:17:43.632Z,59.12
2018-06-20T20:18:43.604Z,59.42
2018-06-20T20:19:43.645Z,58.72
2018-06-20T20:20:43.724Z,58.42
2018-06-20T20:21:43.648Z,58.92
2018-06-20T20:22:43.627Z,58.62
2018-06-20T20:23:43.547Z,58.72
2018-06-20T20:24:43.552Z,57.63
2018-06-20T20:25:43.598Z,58.62
2018-06-20T20:26:43.545Z,58.42
2018-06-20T20:27:43.512Z,58.12
2018-06-20T20:28:43.570Z,57.13
2018-06-20T20:29:43.541Z,58.62
2018-06-20T20:30:43.552Z,58.42
2018-06-20T20:31:43.517Z,58.42
2018-06-20T20:32:43.828Z,57.93
2018-06-20T20:33:43.437Z,57.53
2018-06-20T20:34:43.454Z,57.63
2018-06-20T20:35:43.520Z,58.23
2018-06-20T20:36:43.465Z,58.62
2018-06-20T20:37:43.426Z,59.42
2018-06-20T20:38:43.495Z,58.83
2018-06-20T20:39:43.451Z,58.72
2018-06-20T20:40:43.472Z,59.65
2018-06-20T20:41:43.369Z,59.52
2018-06-20T20:42:43.370Z,59.65
2018-06-20T20:43:43.417Z,59.95
2018-06-20T20:44:43.323Z,60.05
2018-06-20T20:45:43.491Z,60.45
2018-06-20T20:46:43.350Z,59.95
2018-06-20T20:47:43.340Z,60.05
2018-06-20T20:48:43.317Z,61.35
2018-06-20T20:49:43.321Z,60.45
2018-06-20T20:50:43.279Z,61.25
2018-06-20T20:51:43.349Z,60.97
2018-06-20T20:52:43.356Z,60.97
2018-06-20T20:53:43.282Z,60.88
2018-06-20T20:54:43.222Z,60.97
2018-06-20T20:55:43.222Z,60.88
2018-06-20T20:56:43.278Z,61.98
2018-06-20T20:57:43.213Z,60.88
2018-06-20T20:58:43.184Z,61.08
2018-06-20T20:59:43.217Z,61.18
2018-06-20T21:00:43.258Z,60.88
2018-06-20T21:01:43.304Z,61.27
2018-06-20T21:02:43.203Z,62.10
2018-06-20T21:03:43.182Z,61.71
2018-06-20T21:04:43.130Z,60.91
2018-06-20T21:05:43.154Z,62.01
2018-06-20T21:06:43.311Z,61.00
2018-06-20T21:07:43.085Z,62.30
2018-06-20T21:08:43.096Z,62.50
2018-06-20T21:09:43.183Z,61.80
2018-06-20T21:10:43.080Z,61.30
2018-06-20T21:11:43.251Z,62.01
2018-06-20T21:12:43.078Z,61.00
2018-06-20T21:13:43.055Z,62.20
2018-06-20T21:14:43.106Z,62.63
2018-06-20T21:15:43.062Z,62.23
2018-06-20T21:16:43.205Z,63.63
2018-06-20T21:17:42.995Z,62.63
2018-06-20T21:18:43.042Z,62.23
2018-06-20T21:19:43.002Z,62.86
2018-06-20T21:20:42.992Z,63.66
2018-06-20T21:21:43.569Z,62.53
2018-06-20T21:22:42.963Z,62.73
2018-06-20T21:23:43.003Z,61.76
2018-06-20T21:24:43.006Z,62.66
2018-06-20T21:25:42.894Z,63.63
2018-06-20T21:26:43.042Z,63.17
2018-06-20T21:27:42.922Z,63.56
2018-06-20T21:28:43.052Z,62.86
2018-06-20T21:29:42.918Z,62.56
2018-06-20T21:30:42.994Z,63.46
2018-06-20T21:31:42.960Z,64.36
2018-06-20T21:32:42.979Z,64.00
2018-06-20T21:33:42.888Z,63.69
2018-06-20T21:34:42.834Z,63.39
2018-06-20T21:35:42.783Z,64.72
2018-06-20T21:36:42.933Z,64.39
2018-06-20T21:37:42.804Z,64.32
2018-06-20T21:38:42.873Z,64.92
2018-06-20T21:39:42.829Z,64.72
2018-06-20T21:40:42.747Z,64.69
2018-06-20T21:41:42.845Z,64.39
2018-06-20T21:42:42.770Z,64.83
2018-06-20T21:43:42.759Z,64.62
2018-06-20T21:44:42.748Z,65.12
2018-06-20T21:45:42.730Z,64.62
2018-06-20T21:46:42.755Z,65.22
2018-06-20T21:47:42.671Z,65.22
2018-06-20T21:48:43.553Z,64.52
2018-06-20T21:49:43.221Z,64.83
2018-06-20T21:50:42.647Z,65.12
2018-06-20T21:51:42.684Z,64.72
2018-06-20T21:52:42.642Z,65.12
2018-06-20T21:53:42.881Z,64.52
2018-06-20T21:54:42.675Z,65.83
2018-06-20T21:55:42.600Z,65.42
2018-06-20T21:56:42.683Z,64.92
2018-06-20T21:57:42.628Z,65.33
2018-06-20T21:58:42.582Z,65.22
2018-06-20T21:59:42.547Z,65.33
2018-06-20T22:00:42.606Z,64.92
2018-06-20T22:01:42.657Z,65.52
2018-06-20T22:02:42.648Z,65.72
2018-06-20T22:03:42.573Z,65.12
2018-06-20T22:04:42.667Z,65.12
2018-06-20T22:05:42.583Z,66.13
2018-06-20T22:06:42.610Z,65.52
2018-06-20T22:07:42.418Z,65.12
2018-06-20T22:08:42.413Z,64.52
2018-06-20T22:09:42.499Z,64.62
2018-06-20T22:10:42.413Z,64.62
2018-06-20T22:11:42.440Z,65.02
2018-06-20T22:12:42.429Z,64.83
2018-06-20T22:13:42.348Z,64.69
2018-06-20T22:14:42.469Z,64.89
2018-06-20T22:15:42.427Z,64.79
2018-06-20T22:16:43.800Z,64.42
2018-06-20T22:17:42.308Z,64.42
2018-06-20T22:18:42.336Z,64.22
2018-06-20T22:19:42.362Z,64.42
2018-06-20T22:20:42.294Z,64.52
2018-06-20T22:21:42.356Z,64.32
2018-06-20T22:22:42.463Z,64.79
2018-06-20T22:23:42.238Z,64.72
2018-06-20T22:24:42.467Z,64.83
2018-06-20T22:25:42.285Z,64.83
2018-06-20T22:26:42.271Z,64.32
2018-06-20T22:27:42.200Z,64.19
2018-06-20T22:28:42.269Z,64.52
2018-06-20T22:29:42.215Z,64.72
2018-06-20T22:30:42.215Z,64.92
2018-06-20T22:31:42.164Z,64.42
2018-06-20T22:32:42.301Z,64.72
2018-06-20T22:33:42.153Z,64.72
2018-06-20T22:34:42.155Z,64.92
2018-06-20T22:35:42.147Z,64.52
2018-06-20T22:36:42.173Z,64.72
2018-06-20T22:37:42.208Z,64.83
2018-06-20T22:38:42.111Z,65.02
2018-06-20T22:39:42.166Z,64.83
2018-06-20T22:40:42.111Z,65.02
2018-06-20T22:41:42.091Z,64.95
2018-06-20T22:42:42.186Z,64.72
2018-06-20T22:43:42.046Z,64.52
2018-06-20T22:44:42.012Z,64.55
2018-06-20T22:45:41.997Z,64.62
2018-06-20T22:46:42.001Z,64.55
2018-06-20T22:47:42.061Z,64.55
2018-06-20T22:48:42.050Z,64.55
2018-06-20T22:49:41.950Z,64.55
2018-06-20T22:50:41.949Z,64.45
2018-06-20T22:51:41.947Z,65.16
2018-06-20T22:52:42.022Z,65.25
2018-06-20T22:53:41.921Z,65.25
2018-06-20T22:54:41.927Z,65.86
2018-06-20T22:55:41.885Z,65.95
2018-06-20T22:56:41.939Z,64.95
2018-06-20T22:57:41.931Z,65.45
2018-06-20T22:58:41.855Z,65.05
2018-06-20T22:59:42.839Z,65.05
2018-06-20T23:00:41.833Z,65.16
2018-06-20T23:01:41.825Z,64.65
2018-06-20T23:02:41.891Z,65.16
2018-06-20T23:03:41.809Z,65.16
2018-06-20T23:04:41.793Z,65.16
2018-06-20T23:05:41.775Z,65.16
2018-06-20T23:06:41.764Z,65.16
2018-06-20T23:07:42.573Z,65.16
2018-06-20T23:08:41.782Z,65.48
2018-06-20T23:09:41.800Z,65.45
2018-06-20T23:10:41.732Z,65.45
2018-06-20T23:11:41.771Z,65.89
2018-06-20T23:12:41.756Z,66.19
2018-06-20T23:13:41.689Z,66.28
2018-06-20T23:14:41.738Z,66.78
2018-06-20T23:15:41.784Z,66.09
2018-06-20T23:16:41.668Z,66.89
2018-06-20T23:17:42.768Z,66.19
2018-06-20T23:18:41.634Z,65.78
2018-06-20T23:19:41.627Z,66.19
2018-06-20T23:20:41.635Z,66.39
2018-06-20T23:21:41.603Z,66.32
2018-06-20T23:22:41.654Z,66.28
2018-06-20T23:23:41.576Z,66.52
2018-06-20T23:24:41.569Z,65.92
2018-06-20T23:25:41.556Z,66.62
2018-06-20T23:26:41.548Z,66.62
2018-06-20T23:27:41.659Z,66.82
2018-06-20T23:28:41.537Z,66.02
2018-06-20T23:29:41.510Z,66.92
2018-06-20T23:30:41.508Z,66.42
2018-06-20T23:31:41.497Z,66.62
2018-06-20T23:32:41.602Z,66.85
2018-06-20T23:33:41.511Z,66.95
2018-06-20T23:34:41.475Z,66.75
2018-06-20T23:35:41.471Z,67.05
2018-06-20T23:36:41.522Z,67.05
2018-06-20T23:37:41.487Z,67.15
2018-06-20T23:38:41.432Z,67.45
2018-06-20T23:39:41.399Z,67.45
2018-06-20T23:40:41.462Z,66.95
2018-06-20T23:41:41.441Z,67.25
2018-06-20T23:42:41.429Z,66.85
2018-06-20T23:43:41.364Z,67.05
2018-06-20T23:44:41.359Z,67.18
2018-06-20T23:45:41.409Z,66.99
2018-06-20T23:46:41.352Z,67.18
2018-06-20T23:47:41.380Z,67.58
2018-06-20T23:48:41.317Z,67.18
2018-06-20T23:49:41.300Z,67.76
2018-06-20T23:50:41.409Z,67.88
2018-06-20T23:51:41.274Z,67.49
2018-06-20T23:52:41.356Z,68.08
2018-06-20T23:53:41.270Z,67.58
2018-06-20T23:54:41.290Z,67.49
2018-06-20T23:55:41.239Z,67.45
2018-06-20T23:56:41.220Z,67.45
2018-06-20T23:57:41.262Z,68.08
2018-06-20T23:58:41.328Z,67.96
2018-06-20T23:59:41.187Z,67.45
